createdAt,value
2022-11-18T00:01:58.083Z,4.88
2022-11-18T00:04:24.909Z,4.88
2022-11-18T00:06:51.797Z,6.15
2022-11-18T00:09:18.907Z,4.25
2022-11-18T00:12:04.302Z,5.28
2022-11-18T00:14:31.133Z,5.80
2022-11-18T00:17:01.400Z,5.88
2022-11-18T00:19:31.427Z,5.35
2022-11-18T00:21:59.393Z,5.55
2022-11-18T00:24:26.798Z,6.78
2022-11-18T00:26:54.804Z,5.30
2022-11-18T00:29:22.387Z,6.10
2022-11-18T00:31:49.671Z,5.45
2022-11-18T00:34:18.480Z,5.38
2022-11-18T00:37:03.730Z,5.68
2022-11-18T00:39:30.589Z,5.00
2022-11-18T00:42:15.950Z,5.50
2022-11-18T00:44:42.783Z,6.85
2022-11-18T00:47:09.558Z,5.55
2022-11-18T00:49:36.403Z,4.90
2022-11-18T00:52:03.941Z,6.07
2022-11-18T00:54:30.780Z,4.22
2022-11-18T00:56:57.554Z,6.50
2022-11-18T00:59:24.469Z,6.18
2022-11-18T01:01:51.385Z,6.50
2022-11-18T01:04:18.421Z,4.57
2022-11-18T01:06:45.261Z,7.43
2022-11-18T01:09:12.065Z,6.40
2022-11-18T01:11:57.554Z,5.25
2022-11-18T01:14:25.987Z,4.80
2022-11-18T01:16:57.174Z,5.32
2022-11-18T01:19:25.086Z,6.53
2022-11-18T01:21:51.971Z,4.65
2022-11-18T01:24:18.834Z,5.05
2022-11-18T01:26:45.614Z,5.35
2022-11-18T01:29:12.715Z,5.68
2022-11-18T01:32:01.535Z,7.30
2022-11-18T01:34:29.460Z,6.78
2022-11-18T01:36:57.342Z,5.03
2022-11-18T01:39:24.446Z,4.82
2022-11-18T01:41:51.439Z,6.15
2022-11-18T01:44:55.590Z,6.05
2022-11-18T01:47:24.011Z,5.72
2022-11-18T01:49:51.019Z,5.85
2022-11-18T01:52:18.190Z,4.60
2022-11-18T01:54:52.383Z,5.68
2022-11-18T01:57:23.068Z,7.50
2022-11-18T01:59:55.445Z,8.23
2022-11-18T02:02:22.829Z,6.80
2022-11-18T02:07:43.003Z,5.68
2022-11-18T02:10:17.821Z,7.50
2022-11-18T02:12:44.838Z,6.93
2022-11-18T02:15:11.617Z,4.90
2022-11-18T02:17:44.078Z,4.38
2022-11-18T02:20:37.114Z,5.63
2022-11-18T02:23:06.973Z,6.13
2022-11-18T02:25:43.075Z,6.03
2022-11-18T02:28:25.182Z,5.38
2022-11-18T02:31:02.924Z,7.80
2022-11-18T02:33:57.361Z,5.82
2022-11-18T02:36:50.127Z,6.93
2022-11-18T02:39:38.235Z,7.45
2022-11-18T02:42:09.429Z,6.35
2022-11-18T02:44:58.961Z,5.35
2022-11-18T02:47:28.881Z,7.53
2022-11-18T02:50:11.195Z,7.22
2022-11-18T02:52:40.345Z,9.32
2022-11-18T02:55:11.548Z,6.40
2022-11-18T02:57:59.643Z,6.25
2022-11-18T03:00:45.309Z,8.23
2022-11-18T03:03:38.337Z,5.70
2022-11-18T03:06:10.822Z,7.13
2022-11-18T03:08:50.695Z,5.47
2022-11-18T03:11:22.814Z,5.65
2022-11-18T03:14:08.357Z,5.35
2022-11-18T03:16:47.822Z,6.18
2022-11-18T03:19:41.384Z,7.25
2022-11-18T03:22:24.135Z,6.28
2022-11-18T03:25:06.548Z,4.65
2022-11-18T03:28:00.714Z,6.43
2022-11-18T03:30:30.762Z,5.97
2022-11-18T03:33:06.171Z,6.43
2022-11-18T03:35:37.331Z,7.18
2022-11-18T03:38:16.790Z,6.68
2022-11-18T03:40:50.446Z,6.15
2022-11-18T03:43:22.870Z,8.43
2022-11-18T03:45:54.993Z,10.77
2022-11-18T03:48:50.622Z,9.98
2022-11-18T03:51:22.763Z,7.95
2022-11-18T03:53:56.322Z,6.13
2022-11-18T03:56:29.207Z,6.60
2022-11-18T03:59:15.949Z,7.80
2022-11-18T04:02:14.270Z,9.90
2022-11-18T04:04:43.538Z,7.90
2022-11-18T04:07:32.332Z,7.82
2022-11-18T04:10:14.864Z,8.32
2022-11-18T04:12:48.784Z,9.15
2022-11-18T04:15:16.506Z,7.35
2022-11-18T04:18:02.054Z,8.43
2022-11-18T04:20:29.032Z,7.13
2022-11-18T04:22:55.806Z,9.23
2022-11-18T04:25:24.517Z,8.35
2022-11-18T04:27:51.610Z,9.02
2022-11-18T04:30:19.594Z,5.95
2022-11-18T04:32:46.560Z,6.75
2022-11-18T04:35:14.321Z,6.65
2022-11-18T04:37:41.322Z,10.18
2022-11-18T04:40:08.919Z,7.75
2022-11-18T04:42:35.749Z,6.50
2022-11-18T04:45:21.218Z,7.32
2022-11-18T04:47:48.051Z,8.25
2022-11-18T04:50:15.090Z,9.80
2022-11-18T04:52:42.207Z,7.80
2022-11-18T04:55:09.237Z,6.80
2022-11-18T04:57:36.046Z,9.27
2022-11-18T05:05:34.975Z,9.50
2022-11-18T05:08:01.738Z,10.60
2022-11-18T05:10:47.077Z,10.38
2022-11-18T05:13:13.883Z,9.70
2022-11-18T05:15:40.718Z,10.35
2022-11-18T05:18:11.222Z,10.75
2022-11-18T05:20:41.526Z,10.85
2022-11-18T05:23:08.855Z,8.73
2022-11-18T05:25:35.884Z,10.43
2022-11-18T05:28:03.159Z,7.20
2022-11-18T05:30:29.939Z,9.52
2022-11-18T05:32:56.986Z,9.80
2022-11-18T05:35:24.183Z,10.05
2022-11-18T05:37:51.075Z,10.02
2022-11-18T05:40:18.028Z,11.30
2022-11-18T05:43:03.363Z,11.25
2022-11-18T05:45:30.263Z,10.05
2022-11-18T05:48:00.964Z,7.80
2022-11-18T05:50:27.761Z,8.13
2022-11-18T05:53:14.401Z,8.27
2022-11-18T05:55:50.257Z,9.55
2022-11-18T05:58:17.245Z,10.18
2022-11-18T06:00:47.734Z,8.05
2022-11-18T06:03:24.978Z,7.07
2022-11-18T06:05:58.212Z,8.38
2022-11-18T06:08:31.024Z,11.50
2022-11-18T06:10:58.438Z,12.23
2022-11-18T06:13:30.917Z,9.25
2022-11-18T06:15:58.121Z,9.27
2022-11-18T06:18:28.166Z,10.23
2022-11-18T06:21:00.205Z,11.18
2022-11-18T06:23:31.981Z,8.43
2022-11-18T06:25:58.770Z,8.35
2022-11-18T06:28:27.264Z,10.27
2022-11-18T06:30:54.057Z,10.68
2022-11-18T06:33:20.825Z,8.07
2022-11-18T06:35:47.657Z,11.67
2022-11-18T06:38:14.428Z,11.30
2022-11-18T06:40:44.770Z,10.60
2022-11-18T06:43:30.673Z,10.60
2022-11-18T06:46:21.431Z,12.63
2022-11-18T06:48:48.650Z,10.95
2022-11-18T06:51:16.097Z,13.25
2022-11-18T06:53:43.216Z,12.40
2022-11-18T06:56:12.870Z,12.35
2022-11-18T06:58:59.297Z,9.40
2022-11-18T07:01:46.466Z,9.88
2022-11-18T07:04:13.401Z,11.27
2022-11-18T07:06:40.234Z,11.48
2022-11-18T07:09:07.518Z,9.70
2022-11-18T07:11:34.653Z,10.32
2022-11-18T07:14:01.672Z,11.02
2022-11-18T07:16:28.922Z,14.43
2022-11-18T07:18:56.605Z,11.82
2022-11-18T07:21:28.950Z,13.10
2022-11-18T07:23:57.057Z,12.95
2022-11-18T07:26:24.055Z,14.18
2022-11-18T07:28:51.277Z,12.75
2022-11-18T07:31:19.967Z,12.43
2022-11-18T07:33:47.727Z,11.80
2022-11-18T07:36:35.646Z,13.33
2022-11-18T07:39:05.097Z,14.15
2022-11-18T07:41:32.523Z,12.32
2022-11-18T07:44:01.565Z,10.75
2022-11-18T07:46:31.361Z,14.23
2022-11-18T07:49:01.597Z,14.25
2022-11-18T07:51:30.903Z,12.18
2022-11-18T07:54:17.487Z,10.23
2022-11-18T07:56:44.378Z,12.48
2022-11-18T07:59:11.401Z,14.00
2022-11-18T08:01:38.313Z,16.48
2022-11-18T08:04:11.935Z,13.32
2022-11-18T08:06:39.351Z,11.40
2022-11-18T08:09:07.273Z,13.27
2022-11-18T08:11:34.705Z,12.68
2022-11-18T08:14:01.522Z,15.30
2022-11-18T08:16:28.742Z,13.88
2022-11-18T08:19:14.335Z,16.98
2022-11-18T08:21:41.177Z,14.98
2022-11-18T08:24:10.125Z,15.40
2022-11-18T08:26:36.914Z,14.07
2022-11-18T08:29:04.016Z,13.90
2022-11-18T08:31:31.410Z,15.57
2022-11-18T08:34:00.642Z,15.02
2022-11-18T08:36:29.846Z,11.52
2022-11-18T08:38:59.770Z,14.55
2022-11-18T08:41:47.205Z,14.57
2022-11-18T08:44:16.347Z,14.02
2022-11-18T08:46:45.792Z,11.82
2022-11-18T08:49:12.802Z,13.30
2022-11-18T08:51:39.603Z,12.82
2022-11-18T08:54:06.437Z,13.70
2022-11-18T08:56:33.202Z,14.20
2022-11-18T08:59:00.024Z,15.18
2022-11-18T09:01:27.655Z,13.98
2022-11-18T09:03:54.631Z,13.93
2022-11-18T09:06:24.885Z,15.05
2022-11-18T09:08:52.554Z,14.65
2022-11-18T09:11:25.396Z,13.48
2022-11-18T09:17:02.714Z,13.65
2022-11-18T09:19:48.588Z,14.27
2022-11-18T09:22:15.637Z,14.00
2022-11-18T09:24:43.550Z,11.48
2022-11-18T09:27:16.431Z,11.20
2022-11-18T09:29:44.205Z,12.85
2022-11-18T09:32:11.035Z,13.65
2022-11-18T09:34:37.771Z,13.73
2022-11-18T09:37:06.863Z,11.40
2022-11-18T09:39:37.416Z,12.15
2022-11-18T09:42:17.970Z,14.15
2022-11-18T09:45:25.329Z,12.98
2022-11-18T09:47:57.906Z,11.80
2022-11-18T09:53:25.105Z,12.70
2022-11-18T09:55:53.758Z,12.98
2022-11-18T09:58:36.334Z,13.63
2022-11-18T10:03:54.631Z,14.02
2022-11-18T10:06:26.693Z,13.63
2022-11-18T10:09:21.391Z,16.10
2022-11-18T10:12:19.418Z,12.68
2022-11-18T10:14:54.394Z,12.40
2022-11-18T10:17:30.221Z,13.73
2022-11-18T10:20:03.458Z,12.52
2022-11-18T10:22:39.020Z,15.70
2022-11-18T10:25:13.337Z,11.85
2022-11-18T10:27:42.731Z,11.02
2022-11-18T10:30:23.745Z,12.10
2022-11-18T10:33:28.313Z,11.80
2022-11-18T10:36:16.306Z,11.82
2022-11-18T10:38:49.544Z,13.60
2022-11-18T10:42:13.413Z,14.80
2022-11-18T10:44:41.693Z,12.57
2022-11-18T10:47:33.034Z,14.15
2022-11-18T10:50:01.891Z,9.82
2022-11-18T10:52:30.107Z,10.98
2022-11-18T10:55:34.566Z,11.20
2022-11-18T10:58:09.478Z,11.80
2022-11-18T11:00:42.347Z,12.85
2022-11-18T11:03:26.018Z,10.93
2022-11-18T11:06:14.197Z,11.90
2022-11-18T11:08:49.230Z,10.35
2022-11-18T11:11:26.793Z,13.15
2022-11-18T11:14:15.717Z,12.65
2022-11-18T11:16:56.593Z,13.20
2022-11-18T11:19:29.266Z,10.48
2022-11-18T11:21:57.298Z,12.10
2022-11-18T11:24:27.331Z,11.45
2022-11-18T11:30:02.870Z,10.13
2022-11-18T11:32:38.409Z,9.98
2022-11-18T11:35:25.317Z,10.02
2022-11-18T11:38:00.917Z,11.85
2022-11-18T11:40:29.345Z,10.60
2022-11-18T11:43:12.736Z,11.70
2022-11-18T11:45:45.312Z,11.07
2022-11-18T11:48:40.088Z,11.90
2022-11-18T11:51:40.309Z,11.85
2022-11-18T11:54:14.952Z,10.30
2022-11-18T11:57:19.303Z,12.77
2022-11-18T12:00:10.781Z,11.63
2022-11-18T12:02:58.721Z,10.63
2022-11-18T12:05:36.216Z,9.43
2022-11-18T12:08:06.140Z,10.25
2022-11-18T12:10:59.196Z,12.48
2022-11-18T12:14:27.805Z,11.48
2022-11-18T12:17:05.393Z,11.85
2022-11-18T12:19:37.466Z,11.15
2022-11-18T12:22:05.409Z,11.85
2022-11-18T12:24:40.330Z,10.38
2022-11-18T12:27:10.025Z,10.52
2022-11-18T12:29:48.685Z,10.75
2022-11-18T12:32:29.883Z,9.80
2022-11-18T12:35:06.025Z,13.23
2022-11-18T12:37:32.754Z,10.45
2022-11-18T12:40:00.780Z,9.30
2022-11-18T12:43:25.064Z,9.93
2022-11-18T12:45:57.215Z,10.75
2022-11-18T12:48:27.878Z,10.02
2022-11-18T12:50:57.171Z,9.65
2022-11-18T12:53:38.264Z,9.88
2022-11-18T12:56:27.565Z,10.32
2022-11-18T12:59:00.272Z,8.70
2022-11-18T13:01:34.483Z,12.20
2022-11-18T13:04:20.022Z,10.07
2022-11-18T13:06:47.573Z,9.93
2022-11-18T13:09:20.783Z,12.15
2022-11-18T13:12:14.064Z,10.65
2022-11-18T13:15:01.804Z,9.90
2022-11-18T13:17:58.591Z,9.43
2022-11-18T13:20:33.313Z,9.90
2022-11-18T13:23:29.290Z,10.90
2022-11-18T13:26:26.736Z,8.60
2022-11-18T13:29:53.679Z,10.93
2022-11-18T13:32:28.124Z,9.02
2022-11-18T13:35:07.445Z,9.15
2022-11-18T13:37:34.421Z,9.27
2022-11-18T13:40:01.339Z,9.52
2022-11-18T13:42:30.491Z,8.75
2022-11-18T13:45:02.411Z,8.77
2022-11-18T13:47:50.199Z,10.75
2022-11-18T13:50:59.011Z,10.90
2022-11-18T13:53:37.132Z,13.55
2022-11-18T13:56:33.275Z,9.60
2022-11-18T13:59:18.426Z,10.50
2022-11-18T14:01:47.609Z,9.32
2022-11-18T14:04:20.585Z,11.32
2022-11-18T14:06:47.833Z,10.30
2022-11-18T14:09:14.509Z,8.65
2022-11-18T14:11:43.864Z,10.63
2022-11-18T14:14:12.810Z,8.63
2022-11-18T14:16:43.058Z,8.05
2022-11-18T14:19:31.259Z,10.20
2022-11-18T14:22:15.345Z,9.18
2022-11-18T14:28:18.556Z,8.10
2022-11-18T14:31:04.258Z,8.77
2022-11-18T14:33:32.828Z,8.98
2022-11-18T14:36:01.167Z,10.30
2022-11-18T14:41:49.872Z,10.25
2022-11-18T14:44:21.532Z,9.88
2022-11-18T14:46:55.830Z,9.85
2022-11-18T14:49:24.872Z,9.45
2022-11-18T14:51:52.906Z,10.60
2022-11-18T14:54:26.510Z,9.60
2022-11-18T14:56:57.491Z,9.68
2022-11-18T14:59:24.406Z,8.75
2022-11-18T15:01:51.392Z,11.07
2022-11-18T15:04:19.327Z,9.63
2022-11-18T15:06:46.348Z,12.18
2022-11-18T15:11:57.686Z,9.88
2022-11-18T15:14:24.952Z,10.73
2022-11-18T15:16:51.700Z,10.68
2022-11-18T15:19:18.429Z,9.63
2022-11-18T15:21:45.725Z,9.15
2022-11-18T15:24:12.612Z,9.25
2022-11-18T15:26:43.530Z,10.85
2022-11-18T15:29:22.597Z,10.77
2022-11-18T15:31:49.431Z,8.57
2022-11-18T15:34:18.431Z,7.72
2022-11-18T15:36:46.039Z,8.43
2022-11-18T15:39:12.897Z,8.38
2022-11-18T15:41:41.451Z,10.27
2022-11-18T15:44:10.064Z,9.02
2022-11-18T15:46:36.936Z,9.95
2022-11-18T15:49:04.573Z,9.20
2022-11-18T15:51:33.290Z,10.85
2022-11-18T15:54:00.096Z,11.05
2022-11-18T15:56:29.920Z,12.02
2022-11-18T15:58:59.277Z,10.52
2022-11-18T16:01:28.854Z,8.95
2022-11-18T16:03:56.045Z,9.63
2022-11-18T16:06:23.375Z,8.93
2022-11-18T16:08:54.399Z,7.80
2022-11-18T16:11:43.218Z,7.70
2022-11-18T16:14:12.852Z,10.10
2022-11-18T16:16:41.733Z,9.50
2022-11-18T16:19:29.697Z,9.23
2022-11-18T16:21:57.122Z,10.30
2022-11-18T16:24:26.968Z,9.85
2022-11-18T16:27:12.416Z,9.23
2022-11-18T16:29:39.542Z,9.00
2022-11-18T16:32:13.401Z,9.40
2022-11-18T16:37:25.041Z,7.38
2022-11-18T16:39:52.214Z,8.63
2022-11-18T16:42:37.752Z,8.82
2022-11-18T16:45:05.064Z,9.45
2022-11-18T16:47:31.756Z,8.73
2022-11-18T16:49:58.592Z,9.45
2022-11-18T16:52:25.352Z,10.15
2022-11-18T16:54:53.203Z,9.45
2022-11-18T16:57:19.992Z,9.82
2022-11-18T16:59:46.984Z,11.43
2022-11-18T17:02:14.801Z,8.88
2022-11-18T17:04:42.252Z,10.20
2022-11-18T17:07:27.670Z,9.30
2022-11-18T17:09:54.521Z,10.18
2022-11-18T17:12:21.878Z,9.27
2022-11-18T17:14:48.615Z,9.20
2022-11-18T17:17:15.393Z,9.30
2022-11-18T17:19:42.368Z,7.53
2022-11-18T17:22:09.111Z,8.20
2022-11-18T17:24:35.925Z,9.18
2022-11-18T17:27:02.666Z,9.52
2022-11-18T17:29:29.821Z,8.38
2022-11-18T17:32:15.937Z,8.52
2022-11-18T17:34:42.705Z,6.45
2022-11-18T17:37:09.488Z,7.78
2022-11-18T17:39:36.306Z,7.75
2022-11-18T17:42:15.353Z,9.15
2022-11-18T17:45:00.674Z,9.05
2022-11-18T17:47:27.678Z,10.80
2022-11-18T17:49:54.619Z,8.57
2022-11-18T17:52:21.312Z,9.32
2022-11-18T17:54:48.028Z,10.05
2022-11-18T17:57:14.822Z,9.23
2022-11-18T17:59:41.525Z,13.00
2022-11-18T18:02:11.755Z,11.98
2022-11-18T18:04:38.882Z,9.00
2022-11-18T18:07:05.682Z,8.13
2022-11-18T18:09:32.501Z,9.45
2022-11-18T18:12:00.816Z,7.95
2022-11-18T18:14:27.780Z,7.90
2022-11-18T18:16:54.486Z,9.43
2022-11-18T18:19:23.069Z,6.70
2022-11-18T18:21:50.687Z,7.35
2022-11-18T18:24:19.699Z,7.70
2022-11-18T18:26:46.989Z,7.30
2022-11-18T18:29:14.089Z,10.20
2022-11-18T18:31:40.895Z,8.27
2022-11-18T18:34:07.638Z,9.00
2022-11-18T18:36:35.010Z,8.57
2022-11-18T18:39:02.663Z,7.53
2022-11-18T18:44:18.603Z,9.23
2022-11-18T18:46:45.821Z,8.85
2022-11-18T18:49:15.693Z,8.70
2022-11-18T18:51:44.874Z,9.18
2022-11-18T18:54:13.784Z,9.48
2022-11-18T18:56:41.339Z,9.88
2022-11-18T18:59:09.201Z,11.52
2022-11-18T19:01:37.178Z,10.63
2022-11-18T19:04:06.373Z,13.27
2022-11-18T19:09:26.014Z,13.07
2022-11-18T19:12:11.442Z,10.45
2022-11-18T19:14:38.252Z,11.20
2022-11-18T19:17:10.553Z,10.05
2022-11-18T19:19:57.891Z,9.88
2022-11-18T19:22:25.235Z,10.80
2022-11-18T19:24:52.562Z,8.35
2022-11-18T19:27:40.186Z,11.50
2022-11-18T19:30:26.262Z,10.93
2022-11-18T19:32:54.609Z,10.38
2022-11-18T19:35:22.487Z,11.75
2022-11-18T19:37:49.320Z,9.77
2022-11-18T19:40:16.385Z,10.48
2022-11-18T19:43:02.122Z,9.95
2022-11-18T19:45:28.933Z,10.73
2022-11-18T19:47:55.770Z,10.13
2022-11-18T19:50:22.570Z,9.40
2022-11-18T19:53:28.031Z,11.52
2022-11-18T19:55:56.821Z,9.07
2022-11-18T19:58:24.109Z,9.30
2022-11-18T20:03:34.984Z,8.65
2022-11-18T20:06:02.689Z,9.85
2022-11-18T20:08:48.179Z,7.65
2022-11-18T20:11:17.297Z,9.20
2022-11-18T20:13:45.493Z,7.60
2022-11-18T20:16:31.317Z,9.85
2022-11-18T20:19:05.165Z,10.70
2022-11-18T20:21:36.326Z,9.35
2022-11-18T20:24:04.726Z,10.52
2022-11-18T20:26:50.011Z,11.75
2022-11-18T20:29:54.572Z,9.55
2022-11-18T20:32:21.453Z,8.73
2022-11-18T20:34:48.263Z,7.70
2022-11-18T20:37:17.183Z,8.57
2022-11-18T20:39:43.892Z,9.57
2022-11-18T20:42:29.340Z,8.15
2022-11-18T20:44:56.139Z,8.38
2022-11-18T20:47:22.865Z,9.75
2022-11-18T20:49:49.628Z,9.43
2022-11-18T20:52:16.528Z,7.63
2022-11-18T20:54:45.579Z,8.88
2022-11-18T20:57:12.339Z,7.78
2022-11-18T20:59:57.848Z,8.40
2022-11-18T21:02:24.649Z,8.00
2022-11-18T21:05:10.352Z,7.40
2022-11-18T21:07:37.273Z,8.02
2022-11-18T21:10:04.149Z,7.30
2022-11-18T21:12:30.997Z,7.70
2022-11-18T21:14:57.946Z,8.00
2022-11-18T21:17:24.816Z,8.50
2022-11-18T21:19:51.587Z,8.80
2022-11-18T21:22:18.329Z,8.27
2022-11-18T21:24:45.335Z,8.13
2022-11-18T21:27:30.883Z,8.20
2022-11-18T21:29:57.666Z,8.95
2022-11-18T21:32:43.035Z,7.60
2022-11-18T21:35:09.807Z,7.75
2022-11-18T21:37:36.527Z,8.00
2022-11-18T21:40:03.520Z,8.10
2022-11-18T21:42:30.297Z,9.77
2022-11-18T21:44:57.284Z,9.13
2022-11-18T21:47:42.703Z,7.43
2022-11-18T21:50:09.972Z,8.68
2022-11-18T21:52:36.872Z,8.02
2022-11-18T21:55:04.320Z,7.88
2022-11-18T21:57:31.174Z,6.28
2022-11-18T21:59:57.921Z,7.43
2022-11-18T22:02:24.703Z,9.00
2022-11-18T22:05:10.163Z,6.93
2022-11-18T22:07:36.991Z,7.50
2022-11-18T22:10:04.336Z,6.65
2022-11-18T22:12:31.095Z,7.47
2022-11-18T22:14:57.919Z,9.10
2022-11-18T22:17:24.664Z,6.45
2022-11-18T22:19:51.750Z,5.70
2022-11-18T22:22:18.559Z,6.15
2022-11-18T22:24:45.334Z,8.60
2022-11-18T22:27:12.097Z,7.63
2022-11-18T22:29:38.816Z,7.20
2022-11-18T22:32:25.030Z,6.95
2022-11-18T22:34:52.054Z,7.60
2022-11-18T22:37:18.809Z,5.85
2022-11-18T22:39:47.440Z,7.57
2022-11-18T22:42:32.678Z,6.45
2022-11-18T22:44:59.413Z,5.18
2022-11-18T22:47:26.121Z,6.75
2022-11-18T22:49:56.304Z,8.00
2022-11-18T22:55:08.904Z,7.05
2022-11-18T22:57:36.516Z,8.05
2022-11-18T23:00:05.498Z,6.40
2022-11-18T23:02:32.373Z,5.40
2022-11-18T23:04:59.194Z,8.18
2022-11-18T23:07:26.004Z,6.88
2022-11-18T23:09:52.870Z,7.55
2022-11-18T23:12:56.580Z,8.60
2022-11-18T23:15:23.275Z,6.63
2022-11-18T23:17:49.987Z,7.10
2022-11-18T23:20:16.956Z,7.07
2022-11-18T23:22:43.977Z,6.95
2022-11-18T23:25:10.725Z,6.68
2022-11-18T23:27:37.431Z,6.25
2022-11-18T23:30:05.194Z,6.38
2022-11-18T23:32:31.956Z,7.07
2022-11-18T23:34:58.760Z,6.55
2022-11-18T23:37:25.989Z,5.65
2022-11-18T23:39:52.844Z,6.88
2022-11-18T23:42:19.803Z,6.97
2022-11-18T23:44:46.682Z,7.30
2022-11-18T23:47:13.735Z,6.03
2022-11-18T23:49:40.599Z,7.10
2022-11-18T23:52:07.432Z,7.45
2022-11-18T23:54:34.234Z,7.07
2022-11-18T23:57:01.336Z,7.10
2022-11-18T23:59:28.140Z,6.40
